South Lee, Massachusetts
Current Conditions -  °F | °C
As of 9:54 AM on Thursday 30 Oct 2014 (Local Time) from KPSF Reporting Station
Few Clouds Few Clouds  
Wind Chill: 42°   Ceiling: Unl
Heat Index: 46°   Visibility: 10mi
Dew Point: 38°   Wind: 8mph
Humidity: 73%   Direction: 310°NW
Pressure: 29.96"   Gusts: NA
Location:  42.28°N, 73.28°W
Report Text: KPSF 301354Z AUTO 31007KT 10SM FEW023 08/03 A2996 RMK AO2 SLP141 T00780033
Loading
Personal Weather Stations






























Interactive Weather Map
Tropical Storm Tracking
New forecast layout! Learn more

10-Day Weather Forecast

Advertisements
Track Severe Weather on mobile